Weather at Castlegar/West Kootenay Regional Airport

Public forecast

Using degrees Celsius for public forecast. Weather courtesy of forecast.io.

Current aviation weather report (METAR) for Castlegar/West Kootenay Regional Airport

Retrieved 2021/04/16 16:00 UTC (34 minutes ago):

CYCG 161600Z VRB02KT 15SM SKC 08/M01 A3036 RMK HZ SLP294

Aviation forecast (TAF) for Castlegar/West Kootenay Regional Airport

Retrieved 2021/04/16 15:39 UTC (55 minutes ago):

TAF CYCG 161438Z 1615/1703 VRB03KT P6SM SKC BECMG 1616/1618 34008KT RMK NXT FCST BY 161900Z